Terminal Aerodrome Forecast
Issued by NWS

Home | Current Version | Previous Version | Text Only | Print | Product List | Glossary On
Versions: 1 2 3 4 5 6 7 8 9 10 11 12 13 14 15
000
FTAK31 PAJN 022300
TAFASI
TAF
PASI 022330Z 0300/0324 22008KT P6SM BKN010 OVC025
     FM030200 22006KT P6SM SCT008 OVC015
     FM030600 19005KT P6SM SCT007 OVC015
     FM031400 13005KT 6SM -RA BR BKN007 OVC015
     FM031900 21005KT P6SM -RA BKN015 OVC025
     FM032200 21008KT P6SM -RA OVC025=

USA.gov is the U.S. government's official web portal to all federal, state and local government web resources and services.